Time;durP1;ratioP1;P1;durP2;ratioP2;P2;SDS_P1;SDS_P2;PMS_P1;PMS_P2;Temp;Humidity;BMP_temperature;BMP_pressure;BME280_temperature;BME280_humidity;BME280_pressure;Samples;Min_cycle;Max_cycle;Signal;HPM_P1;HPM_P2
2021/10/09 00:02:26;;;;;;;;;;;;;;;7.71;90.41;100248.97;5015161;28;842;-63
2021/10/09 00:04:53;;;;;;;;;;;;;;;7.69;90.43;100243.06;4997507;28;1422;-64
2021/10/09 00:07:20;;;;;;;;;;;;;;;7.65;90.13;100234.75;5014994;28;2228;-63
2021/10/09 00:09:46;;;;;;;;;;;;;;;7.64;90.32;100224.09;5015067;28;795;-62
2021/10/09 00:12:12;;;;;;;;;;;;;;;7.62;90.17;100212.66;5014950;28;878;-62
2021/10/09 00:14:40;;;;;;;;;;;;;;;7.63;90.54;100217.81;5015118;28;909;-62
2021/10/09 00:17:08;;;;;;;;;;;;;;;7.64;89.72;100207.59;5015159;28;1024;-62
2021/10/09 00:19:37;;;;;;;;;;;;;;;7.67;89.87;100213.16;5014824;28;853;-62
2021/10/09 00:22:03;;;;;;;;;;;;;;;7.67;88.98;100213.16;5014808;28;811;-61
2021/10/09 00:24:31;;;;;;;;;;;;;;;7.67;89.43;100217.88;5014748;28;803;-62
2021/10/09 00:26:58;;;;;;;;;;;;;;;7.66;88.69;100211.56;5014599;28;1949;-62
2021/10/09 00:29:26;;;;;;;;;;;;;;;7.71;88.28;100213.22;5014804;28;858;-61
2021/10/09 00:31:53;;;;;;;;;;;;;;;7.74;88.21;100231.72;5014588;28;870;-61
2021/10/09 00:34:20;;;;;;;;;;;;;;;7.74;87.92;100213.22;5014362;28;1270;-61
2021/10/09 00:36:46;;;;;;;;;;;;;;;7.72;88.43;100210.09;5014540;28;858;-59
2021/10/09 00:39:22;;;;;;;;;;;;;;;7.69;87.66;100207.28;5014450;28;886;-60
2021/10/09 00:41:48;;;;;;;;;;;;;;;7.52;87.56;100181.13;5014482;28;807;-59
2021/10/09 00:44:17;;;;;;;;;;;;;;;7.67;88.04;100220.63;5014544;28;835;-60
2021/10/09 00:46:52;;;;;;;;;;;;;;;7.65;87.85;100220.19;5014290;28;1918;-59
2021/10/09 00:49:18;;;;;;;;;;;;;;;7.66;88.29;100199.75;4996776;28;1180;-59
2021/10/09 00:51:46;;;;;;;;;;;;;;;7.66;87.72;100210.75;5014295;28;807;-59
2021/10/09 00:54:27;;;;;;;;;;;;;;;7.65;87.14;100204.47;5014116;28;859;-59
2021/10/09 00:57:16;;;;;;;;;;;;;;;7.70;86.74;100222.63;5014108;28;890;-60
2021/10/09 00:59:45;;;;;;;;;;;;;;;7.68;87.09;100211.19;5014083;28;839;-59
2021/10/09 01:02:11;;;;;;;;;;;;;;;7.70;86.86;100198.66;5014279;28;894;-59
2021/10/09 01:04:37;;;;;;;;;;;;;;;7.71;86.54;100210.47;5012776;28;815;-59
2021/10/09 01:07:23;;;;;;;;;;;;;;;7.71;87.05;100202.19;5013883;28;1961;-59
2021/10/09 01:09:50;;;;;;;;;;;;;;;7.68;87.01;100192.75;4996188;28;1396;-59
2021/10/09 01:12:17;;;;;;;;;;;;;;;7.68;87.20;100206.50;5013897;28;807;-59
2021/10/09 01:14:44;;;;;;;;;;;;;;;7.69;86.96;100193.53;4996229;28;1403;-60
2021/10/09 01:17:14;;;;;;;;;;;;;;;7.69;86.26;100205.31;5013961;28;947;-59
2021/10/09 01:19:41;;;;;;;;;;;;;;;7.69;87.04;100199.03;4996126;28;1287;-59
2021/10/09 01:22:09;;;;;;;;;;;;;;;7.67;86.60;100196.66;5013669;28;858;-59
2021/10/09 01:24:36;;;;;;;;;;;;;;;7.68;86.64;100195.50;4996110;28;1402;-59
2021/10/09 01:27:28;;;;;;;;;;;;;;;7.70;87.06;100189.59;5013377;28;1941;-59
2021/10/09 01:29:56;;;;;;;;;;;;;;;7.69;86.58;100205.31;5013556;28;875;-59
2021/10/09 01:32:23;;;;;;;;;;;;;;;7.70;86.67;100200.59;5013408;28;831;-59
2021/10/09 01:34:50;;;;;;;;;;;;;;;7.69;86.89;100204.53;5013313;28;1417;-59
2021/10/09 01:37:17;;;;;;;;;;;;;;;7.68;86.20;100205.69;5013299;28;874;-59
2021/10/09 01:39:44;;;;;;;;;;;;;;;7.65;86.90;100198.97;4995813;28;1260;-59
2021/10/09 01:42:12;;;;;;;;;;;;;;;7.64;86.84;100199.34;5013275;28;883;-59
2021/10/09 01:44:39;;;;;;;;;;;;;;;7.64;86.36;100207.59;5013254;28;850;-59
2021/10/09 01:47:06;;;;;;;;;;;;;;;7.63;86.58;100190.31;5013135;28;1906;-59
2021/10/09 01:49:33;;;;;;;;;;;;;;;7.62;86.25;100185.97;5013244;28;790;-59
2021/10/09 01:52:00;;;;;;;;;;;;;;;7.62;86.25;100196.16;5013094;28;845;-60
2021/10/09 01:54:26;;;;;;;;;;;;;;;7.62;85.92;100198.91;5013098;28;854;-59
2021/10/09 01:56:54;;;;;;;;;;;;;;;7.61;86.64;100211.09;5012897;28;835;-59
2021/10/09 01:59:20;;;;;;;;;;;;;;;7.60;86.83;100202.06;5013228;28;783;-59
2021/10/09 02:01:47;;;;;;;;;;;;;;;7.59;86.67;100203.22;4995377;28;1241;-59
2021/10/09 02:04:23;;;;;;;;;;;;;;;7.61;86.53;100198.13;5012891;28;874;-59
2021/10/09 02:06:51;;;;;;;;;;;;;;;7.60;86.69;100187.53;5013106;28;1982;-59
2021/10/09 02:09:18;;;;;;;;;;;;;;;7.63;86.78;100208.78;5012918;28;830;-59
2021/10/09 02:11:50;;;;;;;;;;;;;;;7.64;86.52;100193.84;5012998;28;850;-59
2021/10/09 02:24:10;;;;;;;;;;;;;;;7.67;86.92;100206.88;5012613;28;704;-59
2021/10/09 02:27:21;;;;;;;;;;;;;;;7.69;86.05;100215.53;5012313;28;1874;-59
2021/10/09 02:29:47;;;;;;;;;;;;;;;7.70;86.34;100212.41;4994820;28;1426;-59
2021/10/09 02:32:15;;;;;;;;;;;;;;;7.72;86.02;100199.09;5012391;28;838;-59
2021/10/09 02:34:42;;;;;;;;;;;;;;;7.73;86.08;100181.41;5012199;28;1278;-59
2021/10/09 02:37:08;;;;;;;;;;;;;;;7.71;86.04;100210.47;4994735;28;1220;-59
2021/10/09 02:39:35;;;;;;;;;;;;;;;7.73;86.23;100210.88;5012400;28;893;-59
2021/10/09 02:42:02;;;;;;;;;;;;;;;7.76;85.58;100210.91;5012283;28;822;-59
2021/10/09 02:44:29;;;;;;;;;;;;;;;7.75;86.21;100220.34;5012133;28;854;-59
2021/10/09 02:46:56;;;;;;;;;;;;;;;7.75;86.05;100214.06;5012141;28;1966;-59
2021/10/09 02:49:24;;;;;;;;;;;;;;;7.76;86.13;100199.91;5012138;28;812;-59
2021/10/09 02:51:51;;;;;;;;;;;;;;;7.77;86.23;100222.72;5012083;28;869;-59
2021/10/09 02:54:17;;;;;;;;;;;;;;;7.80;86.15;100205.47;5012083;28;913;-59
2021/10/09 02:56:44;;;;;;;;;;;;;;;7.79;86.16;100214.91;5011950;28;823;-59
2021/10/09 02:59:11;;;;;;;;;;;;;;;7.81;85.76;100197.97;5011953;28;831;-59
2021/10/09 03:01:38;;;;;;;;;;;;;;;7.80;85.79;100199.94;5012006;28;803;-59
2021/10/09 03:04:06;;;;;;;;;;;;;;;7.82;85.62;100200.38;5011981;28;929;-59
2021/10/09 03:09:35;;;;;;;;;;;;;;;7.79;85.93;100203.88;5012183;28;633;-59
2021/10/09 03:12:02;;;;;;;;;;;;;;;7.79;86.01;100201.13;5011889;28;819;-59
2021/10/09 03:14:29;;;;;;;;;;;;;;;7.77;86.30;100215.25;5011990;28;885;-59
2021/10/09 03:16:56;;;;;;;;;;;;;;;7.76;85.90;100207.38;5012122;28;925;-60
2021/10/09 03:19:21;;;;;;;;;;;;;;;7.74;86.11;100204.97;5011776;28;834;-60
2021/10/09 03:22:06;;;;;;;;;;;;;;;7.74;85.65;100191.22;5011829;28;841;-60
2021/10/09 03:24:36;;;;;;;;;;;;;;;7.74;85.65;100202.22;5011837;28;870;-59
2021/10/09 03:27:06;;;;;;;;;;;;;;;7.72;85.95;100207.34;5012096;28;1949;-60
2021/10/09 03:29:33;;;;;;;;;;;;;;;7.71;86.10;100200.25;5015774;28;819;-60
2021/10/09 03:31:59;;;;;;;;;;;;;;;7.73;85.80;100197.13;5015770;28;831;-60
2021/10/09 03:50:17;;;;;;;;;;;;;;;7.72;86.23;100207.34;5015639;28;724;-60
2021/10/09 03:53:08;;;;;;;;;;;;;;;7.70;86.54;100201.41;5015340;28;807;-60
2021/10/09 03:55:38;;;;;;;;;;;;;;;7.71;86.00;100202.19;5015216;28;878;-59
2021/10/09 03:58:04;;;;;;;;;;;;;;;7.69;86.72;100215.53;5015230;28;851;-60
2021/10/09 04:00:31;;;;;;;;;;;;;;;7.66;86.91;100219.00;5015316;28;779;-60
2021/10/09 04:02:58;;;;;;;;;;;;;;;7.68;85.98;100224.94;5015175;28;807;-59
2021/10/09 04:05:29;;;;;;;;;;;;;;;7.71;85.80;100218.72;5015035;28;1981;-59
2021/10/09 04:07:56;;;;;;;;;;;;;;;7.72;85.98;100223.03;5015320;28;787;-60
2021/10/09 04:10:23;;;;;;;;;;;;;;;7.72;85.78;100212.84;5015278;28;843;-60
2021/10/09 04:12:49;;;;;;;;;;;;;;;7.75;85.82;100220.34;5015350;28;787;-60
2021/10/09 04:15:16;;;;;;;;;;;;;;;7.73;85.82;100214.41;5014988;28;927;-60
2021/10/09 04:17:42;;;;;;;;;;;;;;;7.71;85.96;100221.47;4997455;28;1213;-60
2021/10/09 04:20:09;;;;;;;;;;;;;;;7.72;86.02;100228.53;4997295;28;922;-60
2021/10/09 04:22:36;;;;;;;;;;;;;;;7.78;86.31;100216.81;5014717;28;843;-60
2021/10/09 04:25:03;;;;;;;;;;;;;;;7.77;86.03;100204.25;5014761;28;854;-59
2021/10/09 04:27:30;;;;;;;;;;;;;;;7.75;85.93;100220.34;5014767;28;1952;-59
2021/10/09 04:29:55;;;;;;;;;;;;;;;7.74;85.81;100232.50;5014590;28;819;-59
2021/10/09 04:32:22;;;;;;;;;;;;;;;7.75;86.11;100231.34;4997073;28;1157;-59
2021/10/09 04:34:49;;;;;;;;;;;;;;;7.75;86.03;100219.56;5014526;28;862;-60
2021/10/09 04:37:15;;;;;;;;;;;;;;;7.74;86.15;100239.97;5014528;28;854;-60
2021/10/09 04:39:41;;;;;;;;;;;;;;;7.76;85.94;100237.63;5014167;28;795;-59
2021/10/09 04:42:08;;;;;;;;;;;;;;;7.76;86.47;100243.13;5014491;28;866;-60
2021/10/09 04:44:35;;;;;;;;;;;;;;;7.77;86.26;100231.78;5014334;28;839;-59
2021/10/09 04:47:01;;;;;;;;;;;;;;;7.77;85.74;100245.53;5014238;28;1898;-60
2021/10/09 04:49:28;;;;;;;;;;;;;;;7.80;85.75;100241.22;5014242;28;854;-60
2021/10/09 04:51:55;;;;;;;;;;;;;;;7.82;85.81;100249.91;5014264;28;910;-59
2021/10/09 04:54:21;;;;;;;;;;;;;;;7.80;86.15;100252.25;5014094;28;863;-60
2021/10/09 04:56:48;;;;;;;;;;;;;;;7.84;86.40;100247.56;5014151;28;894;-60
2021/10/09 04:59:15;;;;;;;;;;;;;;;7.86;85.98;100258.22;5014156;28;811;-60
2021/10/09 05:01:42;;;;;;;;;;;;;;;7.87;85.92;100265.28;5014047;28;871;-59
2021/10/09 05:04:08;;;;;;;;;;;;;;;7.87;85.96;100259.78;5014046;28;823;-60
2021/10/09 05:06:35;;;;;;;;;;;;;;;7.88;85.99;100262.19;4996291;28;1973;-60
2021/10/09 05:09:03;;;;;;;;;;;;;;;7.89;85.43;100266.50;5014247;28;783;-60
2021/10/09 05:16:57;;;;;;;;;;;;;;;7.95;85.70;100254.00;5981946;23;1780;-60
2021/10/09 05:19:24;;;;;;;;;;;;;;;7.98;85.37;100261.53;5013581;28;1384;-59
2021/10/09 05:21:50;;;;;;;;;;;;;;;7.98;85.92;100267.03;5013787;28;862;-60
2021/10/09 05:24:16;;;;;;;;;;;;;;;7.98;85.92;100267.03;5013702;28;799;-60
2021/10/09 05:26:43;;;;;;;;;;;;;;;7.97;86.08;100253.63;5013588;28;1975;-60
2021/10/09 05:29:16;;;;;;;;;;;;;;;7.96;85.40;100261.13;5013749;28;811;-60
2021/10/09 05:31:43;;;;;;;;;;;;;;;7.95;85.42;100266.97;5013796;28;850;-60
2021/10/09 05:34:11;;;;;;;;;;;;;;;7.94;85.94;100277.22;5013773;28;834;-59
2021/10/09 05:36:37;;;;;;;;;;;;;;;7.92;86.41;100268.53;5013593;28;814;-59
2021/10/09 05:39:03;;;;;;;;;;;;;;;7.93;86.06;100272.06;5013702;28;815;-60
2021/10/09 05:41:30;;;;;;;;;;;;;;;7.95;86.23;100267.78;5013570;28;869;-59
2021/10/09 05:43:57;;;;;;;;;;;;;;;7.97;86.46;100279.19;5013600;28;819;-60
2021/10/09 05:46:23;;;;;;;;;;;;;;;8.01;86.31;100286.72;5013525;28;1947;-59
2021/10/09 05:48:51;;;;;;;;;;;;;;;8.04;86.10;100288.72;4996072;28;832;-60
2021/10/09 05:51:25;;;;;;;;;;;;;;;8.05;86.11;100287.56;4995143;28;1221;-60
2021/10/09 05:54:01;;;;;;;;;;;;;;;8.08;86.66;100292.31;5013303;28;815;-60
2021/10/09 06:37:50;;;;;;;;;;;;;;;8.37;86.17;100338.34;5012415;28;633;-59
2021/10/09 06:59:40;;;;;;;;;;;;;;;8.90;84.05;100344.88;4989757;28;1068;-60
2021/10/09 07:05:11;;;;;;;;;;;;;;;9.12;82.66;100324.59;5012392;28;617;-60
2021/10/09 07:07:47;;;;;;;;;;;;;;;9.09;82.50;100333.66;5011931;28;1898;-60
2021/10/09 07:10:14;;;;;;;;;;;;;;;9.24;83.23;100329.06;5011930;28;870;-60
2021/10/09 07:12:41;;;;;;;;;;;;;;;9.39;81.76;100327.22;5011862;28;786;-60
2021/10/09 07:15:09;;;;;;;;;;;;;;;9.39;81.65;100339.03;5011770;28;834;-59
2021/10/09 07:17:36;;;;;;;;;;;;;;;9.51;81.32;100337.16;5011867;28;1360;-59
2021/10/09 07:20:04;;;;;;;;;;;;;;;9.51;81.44;100348.97;5011779;28;798;-60
2021/10/09 07:22:31;;;;;;;;;;;;;;;9.52;81.85;100341.50;5012047;28;878;-60
2021/10/09 07:25:08;;;;;;;;;;;;;;;9.66;81.28;100346.34;5011747;28;866;-60
2021/10/09 07:27:34;;;;;;;;;;;;;;;9.69;80.66;100337.31;4994155;28;1910;-60
2021/10/09 07:30:00;;;;;;;;;;;;;;;9.82;80.78;100350.41;5011800;28;835;-60
2021/10/09 07:32:28;;;;;;;;;;;;;;;9.94;80.07;100349.31;5012164;28;806;-61
2021/10/09 07:34:54;;;;;;;;;;;;;;;10.01;79.64;100357.63;5012125;28;826;-60
2021/10/09 07:37:20;;;;;;;;;;;;;;;10.19;79.34;100354.16;5011891;28;874;-60
2021/10/09 07:39:45;;;;;;;;;;;;;;;10.10;79.84;100365.56;5011953;28;858;-60
2021/10/09 07:42:12;;;;;;;;;;;;;;;10.03;79.50;100357.25;5011544;28;839;-60
2021/10/09 07:44:39;;;;;;;;;;;;;;;9.86;80.08;100353.19;5011440;28;822;-60
2021/10/09 07:47:06;;;;;;;;;;;;;;;9.84;80.07;100366.59;5011702;28;1890;-60
2021/10/09 07:49:32;;;;;;;;;;;;;;;9.84;80.10;100361.06;5011523;28;835;-60
2021/10/09 07:55:03;;;;;;;;;;;;;;;9.68;80.79;100369.63;5011838;28;684;-60
2021/10/09 07:58:05;;;;;;;;;;;;;;;9.63;81.42;100378.25;5011509;28;830;-59
2021/10/09 08:00:31;;;;;;;;;;;;;;;9.63;81.24;100377.47;5011034;28;1139;-60
2021/10/09 08:03:03;;;;;;;;;;;;;;;9.66;80.56;100366.44;5011369;28;849;-60
2021/10/09 08:05:34;;;;;;;;;;;;;;;9.57;81.37;100361.25;5011336;28;1898;-59
2021/10/09 08:08:03;;;;;;;;;;;;;;;9.53;81.55;100378.94;5011349;28;831;-59
2021/10/09 08:10:30;;;;;;;;;;;;;;;9.77;80.76;100399.66;5011550;28;819;-59
2021/10/09 08:12:56;;;;;;;;;;;;;;;10.00;80.25;100369.03;5011565;28;846;-60
2021/10/09 08:15:23;;;;;;;;;;;;;;;10.06;79.78;100391.59;5014859;28;815;-60
2021/10/09 08:17:50;;;;;;;;;;;;;;;10.19;78.86;100367.97;5014777;28;1381;-60
2021/10/09 08:20:17;;;;;;;;;;;;;;;10.27;78.73;100358.56;5014891;28;886;-60
2021/10/09 08:22:57;;;;;;;;;;;;;;;10.42;78.75;100371.28;5014890;28;787;-60
2021/10/09 08:28:06;;;;;;;;;;;;;;;10.69;77.32;100368.25;5014715;28;795;-60
2021/10/09 08:36:31;;;;;;;;;;;;;;;10.95;76.08;100399.56;5014677;28;633;-60
2021/10/09 08:38:57;;;;;;;;;;;;;;;11.06;76.87;100369.94;5014982;28;842;-60
2021/10/09 08:41:35;;;;;;;;;;;;;;;11.65;74.76;100380.69;5014769;28;893;-60
2021/10/09 08:44:02;;;;;;;;;;;;;;;12.12;73.30;100386.19;4996661;28;1411;-61
2021/10/09 08:46:28;;;;;;;;;;;;;;;12.52;70.62;100403.50;5014396;28;1953;-60
2021/10/09 08:48:55;;;;;;;;;;;;;;;12.37;71.77;100408.31;5014348;28;835;-61
2021/10/09 09:09:21;;;;;;;;;;;;;;;11.97;74.39;100461.03;5014230;28;921;-60
2021/10/09 09:26:26;;;;;;;;;;;;;;;10.68;76.76;100457.09;5012748;28;1973;-61
2021/10/09 09:37:41;;;;;;;;;;;;;;;10.06;79.87;100444.06;5013499;28;676;-60
2021/10/09 09:40:13;;;;;;;;;;;;;;;10.23;79.08;100444.19;5013388;28;834;-62
2021/10/09 09:42:46;;;;;;;;;;;;;;;10.32;78.48;100443.06;5013493;28;815;-60
2021/10/09 09:45:18;;;;;;;;;;;;;;;10.34;78.59;100418.63;5013446;28;831;-60
2021/10/09 09:47:48;;;;;;;;;;;;;;;10.58;77.86;100433.75;5013384;28;1882;-60
2021/10/09 09:50:16;;;;;;;;;;;;;;;10.64;76.90;100434.97;5013168;28;1077;-60
2021/10/09 09:52:43;;;;;;;;;;;;;;;10.61;76.83;100435.75;5013468;28;823;-60
2021/10/09 09:58:13;;;;;;;;;;;;;;;10.63;77.31;100439.72;5013088;28;669;-60
2021/10/09 10:00:40;;;;;;;;;;;;;;;10.68;77.34;100429.47;5012973;28;869;-59
2021/10/09 10:03:07;;;;;;;;;;;;;;;10.73;76.91;100440.94;5013223;28;795;-60
2021/10/09 10:05:33;;;;;;;;;;;;;;;10.69;76.88;100456.72;5012807;28;1902;-60
2021/10/09 10:08:03;;;;;;;;;;;;;;;10.76;76.90;100428.31;5013169;28;787;-60
2021/10/09 10:10:30;;;;;;;;;;;;;;;10.66;76.38;100429.84;5012829;28;882;-60
2021/10/09 10:12:59;;;;;;;;;;;;;;;10.38;77.55;100433.25;5012705;28;874;-60
2021/10/09 10:15:28;;;;;;;;;;;;;;;10.26;79.19;100431.56;5012884;28;870;-60
2021/10/09 10:17:55;;;;;;;;;;;;;;;10.52;78.42;100441.63;5012744;28;1282;-61
2021/10/09 10:20:22;;;;;;;;;;;;;;;10.47;78.34;100449.47;5012691;28;823;-61
2021/10/09 10:22:50;;;;;;;;;;;;;;;10.38;78.62;100445.09;5012851;28;862;-60
2021/10/09 10:25:31;;;;;;;;;;;;;;;10.30;79.41;100437.94;5012577;28;901;-61
2021/10/09 10:28:21;;;;;;;;;;;;;;;10.30;78.51;100446.22;5012565;28;830;-60
2021/10/09 10:31:03;;;;;;;;;;;;;;;10.39;78.16;100434.81;5012534;28;873;-60
2021/10/09 10:33:37;;;;;;;;;;;;;;;10.50;78.11;100441.22;5012483;28;799;-60
2021/10/09 10:36:05;;;;;;;;;;;;;;;10.53;78.24;100437.66;5012122;28;874;-59
2021/10/09 10:38:37;;;;;;;;;;;;;;;10.45;78.12;100438.03;5012339;28;811;-60
2021/10/09 10:44:24;;;;;;;;;;;;;;;10.41;78.47;100427.75;5012410;28;625;-60
2021/10/09 10:46:54;;;;;;;;;;;;;;;10.59;78.32;100433.38;5012181;28;1894;-60
2021/10/09 10:49:41;;;;;;;;;;;;;;;10.66;77.33;100454.72;5012229;28;815;-60
2021/10/09 10:52:13;;;;;;;;;;;;;;;10.62;77.51;100438.13;5012031;28;1228;-61
2021/10/09 10:55:00;;;;;;;;;;;;;;;10.64;76.92;100432.19;4994579;28;1200;-59
2021/10/09 10:57:27;;;;;;;;;;;;;;;10.61;77.08;100421.94;5012065;28;830;-60
2021/10/09 10:59:56;;;;;;;;;;;;;;;10.62;78.00;100426.25;5012057;28;815;-61
2021/10/09 11:02:30;;;;;;;;;;;;;;;10.85;77.05;100427.97;5012005;28;826;-60
2021/10/09 11:05:03;;;;;;;;;;;;;;;10.74;76.44;100438.97;5012038;28;814;-60
2021/10/09 11:10:50;;;;;;;;;;;;;;;11.01;76.20;100423.66;5011903;28;633;-60
2021/10/09 11:13:17;;;;;;;;;;;;;;;10.88;76.83;100425.22;5012166;28;783;-60
2021/10/09 11:15:47;;;;;;;;;;;;;;;10.69;76.29;100439.31;5012206;28;771;-60
2021/10/09 11:18:13;;;;;;;;;;;;;;;10.52;77.36;100427.00;5011601;28;1437;-61
2021/10/09 11:20:42;;;;;;;;;;;;;;;10.45;77.59;100424.22;4994290;28;925;-60
2021/10/09 11:23:10;;;;;;;;;;;;;;;10.49;77.56;100406.47;5011827;28;870;-60
2021/10/09 11:25:38;;;;;;;;;;;;;;;10.45;77.35;100432.50;5011678;28;1910;-60
2021/10/09 11:28:19;;;;;;;;;;;;;;;10.48;77.03;100445.56;5011753;28;806;-60
2021/10/09 11:30:46;;;;;;;;;;;;;;;10.41;77.24;100430.50;5011637;28;937;-60
2021/10/09 11:33:13;;;;;;;;;;;;;;;10.35;77.34;100436.78;5011885;28;874;-60
2021/10/09 11:35:41;;;;;;;;;;;;;;;10.39;78.44;100463.28;5011612;28;806;-60
2021/10/09 11:38:23;;;;;;;;;;;;;;;10.59;77.65;100454.69;5011981;28;815;-61
2021/10/09 11:40:55;;;;;;;;;;;;;;;10.77;76.83;100436.19;5011528;28;881;-61
2021/10/09 11:43:50;;;;;;;;;;;;;;;10.81;76.17;100456.38;5011541;28;819;-60
2021/10/09 11:46:43;;;;;;;;;;;;;;;10.63;76.96;100456.28;4993757;28;1882;-60
2021/10/09 11:55:18;;;;;;;;;;;;;;;10.55;77.42;100481.53;5015450;28;700;-60
2021/10/09 12:00:48;;;;;;;;;;;;;;;10.41;77.88;100465.63;5015347;28;609;-60
2021/10/09 12:15:51;;;;;;;;;;;;;;;10.10;78.47;100478.81;5015218;28;922;-60
2021/10/09 12:18:18;;;;;;;;;;;;;;;10.16;78.09;100448.88;5014757;28;1219;-60
2021/10/09 12:20:45;;;;;;;;;;;;;;;10.13;77.83;100455.94;5014831;28;823;-59
2021/10/09 12:23:11;;;;;;;;;;;;;;;10.17;78.08;100453.22;5014910;28;893;-60
2021/10/09 12:25:38;;;;;;;;;;;;;;;10.23;77.94;100469.03;5014858;28;1969;-60
2021/10/09 12:28:04;;;;;;;;;;;;;;;10.19;78.47;100459.94;5014753;28;862;-60
2021/10/09 12:30:57;;;;;;;;;;;;;;;10.17;78.02;100467.03;5014747;28;843;-59
2021/10/09 12:33:38;;;;;;;;;;;;;;;9.97;78.34;100467.28;5014609;28;850;-60
2021/10/09 12:36:27;;;;;;;;;;;;;;;10.02;79.00;100455.84;5014644;28;834;-60
2021/10/09 12:38:53;;;;;;;;;;;;;;;9.99;79.14;100467.69;5014579;28;795;-60
2021/10/09 12:41:19;;;;;;;;;;;;;;;10.02;79.03;100463.34;5014447;28;792;-61
2021/10/09 12:43:46;;;;;;;;;;;;;;;9.99;78.95;100466.91;5014517;28;815;-60
2021/10/09 12:46:14;;;;;;;;;;;;;;;9.89;79.20;100476.66;5014385;28;1886;-60
2021/10/09 12:48:40;;;;;;;;;;;;;;;9.88;79.65;100466.81;5014489;28;826;-60
2021/10/09 12:51:07;;;;;;;;;;;;;;;9.77;79.87;100457.63;5014315;28;886;-60
2021/10/09 12:53:33;;;;;;;;;;;;;;;9.81;79.72;100458.44;5014379;28;815;-60
2021/10/09 12:55:59;;;;;;;;;;;;;;;9.87;79.74;100462.44;5014291;28;858;-60
2021/10/09 12:58:26;;;;;;;;;;;;;;;9.85;79.77;100456.50;5014387;28;810;-60
2021/10/09 13:00:55;;;;;;;;;;;;;;;9.69;80.47;100456.78;5013962;28;900;-60
2021/10/09 13:03:22;;;;;;;;;;;;;;;9.67;80.84;100463.84;5014139;28;838;-60
2021/10/09 13:05:48;;;;;;;;;;;;;;;9.63;80.85;100447.25;5014280;28;1937;-60
2021/10/09 13:08:15;;;;;;;;;;;;;;;9.69;80.41;100458.75;5014358;28;890;-60
2021/10/09 13:10:45;;;;;;;;;;;;;;;9.72;80.59;100452.47;5013889;28;850;-60
2021/10/09 13:13:12;;;;;;;;;;;;;;;9.70;80.79;100452.03;5014035;28;866;-60
2021/10/09 13:15:38;;;;;;;;;;;;;;;9.70;80.68;100455.59;5014117;28;886;-60
2021/10/09 13:18:04;;;;;;;;;;;;;;;9.74;80.89;100466.69;5013956;28;1214;-60
2021/10/09 13:23:34;;;;;;;;;;;;;;;9.96;79.86;100451.88;5013853;28;681;-61
2021/10/09 13:26:01;;;;;;;;;;;;;;;10.07;79.45;100462.19;5013641;28;1906;-59
2021/10/09 13:28:27;;;;;;;;;;;;;;;10.08;79.01;100436.19;5013725;28;823;-60
2021/10/09 13:30:53;;;;;;;;;;;;;;;9.91;79.19;100468.78;4996061;28;1248;-59
2021/10/09 13:33:24;;;;;;;;;;;;;;;9.87;79.83;100458.91;5013816;28;815;-59
2021/10/09 13:35:51;;;;;;;;;;;;;;;9.80;79.75;100443.84;5013770;28;799;-60
2021/10/09 13:38:17;;;;;;;;;;;;;;;9.72;80.79;100460.75;5013362;28;827;-60
2021/10/09 13:40:44;;;;;;;;;;;;;;;9.70;80.11;100449.28;5013435;28;819;-59
2021/10/09 13:43:14;;;;;;;;;;;;;;;9.72;80.70;100474.53;5013358;28;851;-60
2021/10/09 13:45:46;;;;;;;;;;;;;;;9.64;80.68;100451.59;5013288;28;1928;-60
2021/10/09 13:48:13;;;;;;;;;;;;;;;9.72;80.84;100447.72;5013300;28;818;-60
2021/10/09 13:50:53;;;;;;;;;;;;;;;10.00;80.02;100446.38;5013216;28;878;-60
2021/10/09 13:53:20;;;;;;;;;;;;;;;10.09;79.27;100454.31;5013281;28;854;-60
2021/10/09 13:55:48;;;;;;;;;;;;;;;9.95;79.34;100455.81;5013091;28;901;-60
2021/10/09 13:58:20;;;;;;;;;;;;;;;9.79;80.53;100463.56;5013130;28;839;-60
2021/10/09 14:00:47;;;;;;;;;;;;;;;9.72;80.87;100453.25;5013064;28;791;-61
2021/10/09 14:03:14;;;;;;;;;;;;;;;9.49;81.25;100458.94;5013186;28;873;-60
2021/10/09 14:05:41;;;;;;;;;;;;;;;9.33;82.26;100456.41;5012942;28;1950;-60
2021/10/09 14:11:10;;;;;;;;;;;;;;;9.24;83.02;100457.88;5012422;28;609;-61
2021/10/09 14:13:36;;;;;;;;;;;;;;;9.27;82.85;100476.44;4995145;28;897;-59
2021/10/09 14:16:02;;;;;;;;;;;;;;;9.26;82.77;100448.09;5012805;28;1020;-59
2021/10/09 14:18:29;;;;;;;;;;;;;;;9.25;83.25;100462.25;5012581;28;1259;-60
2021/10/09 14:20:56;;;;;;;;;;;;;;;9.29;82.96;100457.56;5012962;28;819;-60
2021/10/09 14:23:23;;;;;;;;;;;;;;;9.34;82.94;100474.53;5012686;28;811;-60
2021/10/09 14:25:50;;;;;;;;;;;;;;;9.31;82.73;100469.81;5012575;28;1968;-60
2021/10/09 14:28:17;;;;;;;;;;;;;;;9.29;83.08;100460.31;5012762;28;830;-60
2021/10/09 14:30:44;;;;;;;;;;;;;;;9.29;83.07;100474.13;4994933;28;1305;-60
2021/10/09 14:33:10;;;;;;;;;;;;;;;9.24;83.00;100469.72;5012684;28;835;-59
2021/10/09 14:35:39;;;;;;;;;;;;;;;9.27;83.43;100468.97;5012690;28;800;-60
2021/10/09 14:38:06;;;;;;;;;;;;;;;9.28;83.46;100484.38;5012368;28;853;-60
2021/10/09 14:40:36;;;;;;;;;;;;;;;9.25;83.41;100474.06;4994779;28;1386;-60
2021/10/09 14:43:02;;;;;;;;;;;;;;;9.27;83.60;100481.97;4994720;28;1307;-60
2021/10/09 14:45:28;;;;;;;;;;;;;;;9.30;83.64;100470.16;5012597;28;810;-60
2021/10/09 14:53:14;;;;;;;;;;;;;;;9.32;83.78;100489.91;5012240;28;617;-60
2021/10/09 15:19:40;;;;;;;;;;;;;;;9.45;84.33;100529.84;5012147;28;857;-60
2021/10/09 15:22:08;;;;;;;;;;;;;;;9.46;84.44;100548.00;5011817;28;819;-60
2021/10/09 15:24:35;;;;;;;;;;;;;;;9.52;84.38;100523.63;5011572;28;866;-60
2021/10/09 15:27:02;;;;;;;;;;;;;;;9.56;84.26;100533.53;5010274;28;1973;-60
2021/10/09 15:29:29;;;;;;;;;;;;;;;9.50;84.19;100543.31;5012103;28;858;-60
2021/10/09 15:34:57;;;;;;;;;;;;;;;9.46;84.82;100538.94;5011759;28;649;-60
2021/10/09 15:37:24;;;;;;;;;;;;;;;9.48;84.72;100550.41;5011551;28;873;-61
2021/10/09 15:39:50;;;;;;;;;;;;;;;9.47;84.96;100540.50;5011831;28;831;-60
2021/10/09 15:42:17;;;;;;;;;;;;;;;9.54;85.01;100549.69;4993943;28;1272;-60
2021/10/09 15:44:44;;;;;;;;;;;;;;;9.58;84.69;100533.97;5011571;28;835;-60
2021/10/09 15:47:11;;;;;;;;;;;;;;;9.59;84.53;100534.75;5011458;28;1945;-60
2021/10/09 15:49:37;;;;;;;;;;;;;;;9.56;84.63;100549.31;5011549;28;822;-61
2021/10/09 15:52:04;;;;;;;;;;;;;;;9.51;84.58;100553.19;5011464;28;896;-60
2021/10/09 15:54:39;;;;;;;;;;;;;;;9.53;84.84;100563.84;5011554;28;779;-60
2021/10/09 15:57:08;;;;;;;;;;;;;;;9.54;84.79;100544.16;5011695;28;811;-60
2021/10/09 15:59:35;;;;;;;;;;;;;;;9.53;84.44;100547.28;5011764;28;835;-60
2021/10/09 16:02:02;;;;;;;;;;;;;;;9.55;84.52;100562.28;4994139;28;1225;-60
2021/10/09 16:04:29;;;;;;;;;;;;;;;9.56;84.55;100569.41;5011998;28;850;-61
2021/10/09 16:06:56;;;;;;;;;;;;;;;9.58;84.26;100553.28;4993986;28;1958;-59
2021/10/09 16:09:23;;;;;;;;;;;;;;;9.61;84.49;100579.31;5011750;28;823;-60
2021/10/09 16:11:50;;;;;;;;;;;;;;;9.58;84.62;100561.56;4994142;28;1344;-60
2021/10/09 16:14:16;;;;;;;;;;;;;;;9.58;84.41;100566.25;5011322;28;827;-60
2021/10/09 16:16:42;;;;;;;;;;;;;;;9.58;84.63;100566.25;5011395;28;932;-60
2021/10/09 16:19:09;;;;;;;;;;;;;;;9.57;84.48;100564.69;5010978;28;1440;-61
2021/10/09 16:21:35;;;;;;;;;;;;;;;9.53;84.58;100563.84;5011267;28;815;-60
2021/10/09 16:24:02;;;;;;;;;;;;;;;9.49;84.90;100560.25;5011202;28;792;-60
2021/10/09 16:26:28;;;;;;;;;;;;;;;9.48;84.98;100569.72;5011094;28;1914;-60
2021/10/09 16:28:54;;;;;;;;;;;;;;;9.54;84.87;100555.19;5011132;28;874;-60
2021/10/09 16:31:24;;;;;;;;;;;;;;;9.58;84.94;100561.56;5011369;28;767;-60
2021/10/09 16:33:52;;;;;;;;;;;;;;;9.60;84.73;100553.69;5011389;28;901;-60
2021/10/09 16:36:19;;;;;;;;;;;;;;;9.57;84.77;100557.19;5014567;28;886;-60
2021/10/09 16:38:46;;;;;;;;;;;;;;;9.57;84.58;100537.88;5014633;28;889;-60
2021/10/09 16:41:12;;;;;;;;;;;;;;;9.56;84.93;100557.59;5014607;28;834;-60
2021/10/09 16:43:44;;;;;;;;;;;;;;;9.58;84.84;100556.03;5014556;28;912;-60
2021/10/09 16:46:10;;;;;;;;;;;;;;;9.64;84.33;100575.78;5014404;28;1886;-60
2021/10/09 16:48:37;;;;;;;;;;;;;;;9.63;84.51;100576.19;5014558;28;842;-60
2021/10/09 16:51:04;;;;;;;;;;;;;;;9.60;84.66;100574.97;5014494;28;831;-60
2021/10/09 16:53:32;;;;;;;;;;;;;;;9.58;84.67;100591.09;5014459;28;795;-60